createdAt,value
2023-04-21T00:01:19.082Z,10.00
2023-04-21T00:03:47.234Z,10.40
2023-04-21T00:06:21.767Z,10.00
2023-04-21T00:08:49.814Z,9.50
2023-04-21T00:11:18.202Z,9.90
2023-04-21T00:13:46.138Z,10.20
2023-04-21T00:16:14.106Z,9.10
2023-04-21T00:18:42.334Z,10.10
2023-04-21T00:21:10.303Z,10.10
2023-04-21T00:23:38.798Z,9.70
2023-04-21T00:26:06.735Z,9.30
2023-04-21T00:28:34.725Z,10.60
2023-04-21T00:31:02.664Z,10.00
2023-04-21T00:33:30.851Z,9.90
2023-04-21T00:35:58.988Z,10.90
2023-04-21T00:38:28.758Z,10.10
2023-04-21T00:40:57.040Z,9.60
2023-04-21T00:43:25.452Z,8.70
2023-04-21T00:45:55.661Z,10.90
2023-04-21T00:48:23.721Z,11.20
2023-04-21T00:50:51.729Z,8.30
2023-04-21T00:53:20.474Z,9.00
2023-04-21T00:55:50.476Z,9.30
2023-04-21T00:58:18.725Z,10.30
2023-04-21T01:00:47.117Z,9.50
2023-04-21T01:03:16.752Z,9.70
2023-04-21T01:05:46.152Z,9.20
2023-04-21T01:08:15.285Z,10.10
2023-04-21T01:10:43.373Z,9.90
2023-04-21T01:13:11.302Z,9.50
2023-04-21T01:15:39.571Z,9.60
2023-04-21T01:18:07.640Z,10.10
2023-04-21T01:20:36.224Z,9.40
2023-04-21T01:23:07.834Z,9.60
2023-04-21T01:25:35.971Z,8.80
2023-04-21T01:28:05.403Z,9.30
2023-04-21T01:30:33.374Z,10.60
2023-04-21T01:33:01.425Z,9.00
2023-04-21T01:35:30.734Z,9.40
2023-04-21T01:37:59.276Z,9.60
2023-04-21T01:40:27.574Z,10.00
2023-04-21T01:42:55.881Z,9.20
2023-04-21T01:45:24.396Z,9.30
2023-04-21T01:47:52.452Z,8.50
2023-04-21T01:50:20.748Z,9.70
2023-04-21T01:52:48.846Z,8.60
2023-04-21T01:55:17.855Z,9.40
2023-04-21T01:57:45.778Z,8.20
2023-04-21T02:00:15.621Z,8.20
2023-04-21T02:02:44.429Z,8.70
2023-04-21T02:05:15.007Z,9.30
2023-04-21T02:07:42.919Z,8.70
2023-04-21T02:10:12.041Z,8.60
2023-04-21T02:12:40.090Z,8.80
2023-04-21T02:15:10.384Z,7.80
2023-04-21T02:17:38.508Z,8.80
2023-04-21T02:20:11.455Z,8.40
2023-04-21T02:22:40.254Z,8.60
2023-04-21T02:25:09.304Z,8.90
2023-04-21T02:27:37.362Z,8.20
2023-04-21T02:30:08.493Z,8.80
2023-04-21T02:32:36.940Z,8.40
2023-04-21T02:35:06.960Z,8.80
2023-04-21T02:37:35.414Z,8.50
2023-04-21T02:40:04.869Z,9.10
2023-04-21T02:42:34.100Z,7.80
2023-04-21T02:45:02.143Z,8.20
2023-04-21T02:47:30.147Z,8.70
2023-04-21T02:49:58.516Z,8.90
2023-04-21T02:52:27.352Z,7.30
2023-04-21T02:54:55.465Z,8.30
2023-04-21T02:57:23.425Z,8.00
2023-04-21T02:59:51.321Z,8.70
2023-04-21T03:02:19.346Z,7.60
2023-04-21T03:04:47.341Z,7.80
2023-04-21T03:07:15.689Z,8.50
2023-04-21T03:09:43.604Z,9.00
2023-04-21T03:12:11.606Z,8.40
2023-04-21T03:14:39.638Z,8.00
2023-04-21T03:17:08.075Z,7.40
2023-04-21T03:19:36.054Z,7.80
2023-04-21T03:22:04.066Z,8.00
2023-04-21T03:24:32.170Z,8.10
2023-04-21T03:27:01.152Z,7.90
2023-04-21T03:29:29.460Z,9.00
2023-04-21T03:31:57.461Z,7.40
2023-04-21T03:34:26.404Z,8.30
2023-04-21T03:36:55.551Z,7.10
2023-04-21T03:39:23.750Z,8.20
2023-04-21T03:41:52.902Z,7.00
2023-04-21T03:44:20.912Z,7.70
2023-04-21T03:46:52.104Z,8.20
2023-04-21T03:49:20.746Z,7.50
2023-04-21T03:51:49.092Z,7.50
2023-04-21T03:54:17.012Z,7.90
2023-04-21T03:56:44.999Z,7.30
2023-04-21T03:59:13.014Z,8.00
2023-04-21T04:01:41.679Z,8.00
2023-04-21T04:04:10.019Z,6.70
2023-04-21T04:06:38.169Z,7.50
2023-04-21T04:09:06.103Z,7.00
2023-04-21T04:11:34.356Z,7.10
2023-04-21T04:14:02.388Z,7.20
2023-04-21T04:16:30.502Z,6.90
2023-04-21T04:18:58.591Z,7.00
2023-04-21T04:21:28.014Z,7.40
2023-04-21T04:23:56.344Z,6.90
2023-04-21T04:26:25.046Z,7.10
2023-04-21T04:28:53.048Z,7.60
2023-04-21T04:31:21.841Z,7.10
2023-04-21T04:33:49.900Z,7.70
2023-04-21T04:36:18.171Z,6.70
2023-04-21T04:38:46.843Z,7.00
2023-04-21T04:41:20.682Z,7.10
2023-04-21T04:43:48.892Z,6.40
2023-04-21T04:46:16.943Z,8.80
2023-04-21T04:48:45.100Z,8.10
2023-04-21T04:51:13.250Z,6.60
2023-04-21T04:53:41.319Z,6.40
2023-04-21T04:56:09.410Z,6.90
2023-04-21T04:58:37.553Z,6.10
2023-04-21T05:01:13.311Z,5.90
2023-04-21T05:03:42.645Z,6.70
2023-04-21T05:06:11.580Z,5.70
2023-04-21T05:08:40.783Z,5.70
2023-04-21T05:11:08.961Z,6.40
2023-04-21T05:13:39.604Z,5.60
2023-04-21T05:16:10.747Z,6.10
2023-04-21T05:18:39.118Z,6.10
2023-04-21T05:21:07.326Z,6.50
2023-04-21T05:23:35.310Z,5.70
2023-04-21T05:26:04.676Z,5.80
2023-04-21T05:28:33.103Z,5.90
2023-04-21T05:31:01.169Z,5.70
2023-04-21T05:33:31.187Z,6.70
2023-04-21T05:35:59.169Z,6.50
2023-04-21T05:38:27.359Z,5.50
2023-04-21T05:40:59.226Z,5.20
2023-04-21T05:43:34.809Z,5.80
2023-04-21T05:46:03.441Z,5.10
2023-04-21T05:48:32.974Z,5.50
2023-04-21T05:51:23.360Z,5.50
2023-04-21T05:53:51.382Z,5.20
2023-04-21T05:56:19.473Z,5.50
2023-04-21T05:58:50.025Z,5.60
2023-04-21T06:01:18.172Z,6.20
2023-04-21T06:03:48.507Z,5.00
2023-04-21T06:06:17.544Z,5.70
2023-04-21T06:08:48.707Z,5.00
2023-04-21T06:11:16.834Z,5.40
2023-04-21T06:13:44.941Z,5.30
2023-04-21T06:16:13.056Z,4.50
2023-04-21T06:18:41.102Z,5.00
2023-04-21T06:21:13.284Z,4.90
2023-04-21T06:23:41.721Z,4.70
2023-04-21T06:26:10.204Z,5.30
2023-04-21T06:28:38.687Z,4.60
2023-04-21T06:31:09.035Z,5.20
2023-04-21T06:33:37.300Z,4.90
2023-04-21T06:36:07.071Z,4.90
2023-04-21T06:38:35.587Z,5.60
2023-04-21T06:41:04.048Z,5.50
2023-04-21T06:43:32.085Z,4.70
2023-04-21T06:46:00.446Z,4.80
2023-04-21T06:48:29.696Z,5.80
2023-04-21T06:51:03.230Z,4.90
2023-04-21T06:53:32.604Z,4.40
2023-04-21T06:56:01.090Z,4.30
2023-04-21T06:58:29.187Z,4.50
2023-04-21T07:00:57.754Z,4.30
2023-04-21T07:03:26.001Z,5.30
2023-04-21T07:05:54.188Z,5.00
2023-04-21T07:08:22.412Z,5.30
2023-04-21T07:10:50.456Z,5.60
2023-04-21T07:13:18.985Z,6.70
2023-04-21T07:15:47.314Z,5.20
2023-04-21T07:18:15.426Z,6.10
2023-04-21T07:20:43.651Z,5.70
2023-04-21T07:23:13.994Z,5.10
2023-04-21T07:25:42.456Z,5.50
2023-04-21T07:28:10.828Z,4.10
2023-04-21T07:30:41.236Z,4.70
2023-04-21T07:33:09.370Z,4.60
2023-04-21T07:35:37.545Z,4.00
2023-04-21T07:38:05.595Z,5.60
2023-04-21T07:40:33.769Z,6.00
2023-04-21T07:43:02.017Z,5.10
2023-04-21T07:45:30.104Z,5.50
2023-04-21T07:47:58.599Z,4.90
2023-04-21T07:50:27.376Z,4.90
2023-04-21T07:52:55.519Z,4.50
2023-04-21T07:55:23.574Z,5.20
2023-04-21T07:57:51.687Z,4.20
2023-04-21T08:00:20.617Z,4.20
2023-04-21T08:02:48.835Z,8.80
2023-04-21T08:05:17.467Z,5.60
2023-04-21T08:07:48.417Z,4.10
2023-04-21T08:10:16.565Z,4.40
2023-04-21T08:12:45.423Z,7.80
2023-04-21T08:15:13.784Z,4.40
2023-04-21T08:17:42.345Z,5.00
2023-04-21T08:20:12.331Z,5.00
2023-04-21T08:22:40.309Z,4.50
2023-04-21T08:25:09.137Z,4.80
2023-04-21T08:27:38.958Z,4.30
2023-04-21T08:30:16.475Z,4.70
2023-04-21T08:32:44.548Z,4.60
2023-04-21T08:35:12.643Z,4.40
2023-04-21T08:37:41.181Z,3.80
2023-04-21T08:40:11.321Z,4.30
2023-04-21T08:42:39.669Z,4.60
2023-04-21T08:45:10.440Z,5.30
2023-04-21T08:47:40.613Z,4.40
2023-04-21T08:50:13.942Z,3.50
2023-04-21T08:52:42.011Z,11.40
2023-04-21T08:55:12.913Z,3.90
2023-04-21T08:57:41.030Z,3.50
2023-04-21T09:00:11.407Z,3.80
2023-04-21T09:03:00.097Z,3.20
2023-04-21T09:05:31.428Z,3.20
2023-04-21T09:08:09.380Z,3.50
2023-04-21T09:10:44.658Z,3.00
2023-04-21T09:13:12.892Z,3.30
2023-04-21T09:15:41.712Z,3.20
2023-04-21T09:18:14.663Z,2.70
2023-04-21T09:20:43.302Z,3.00
2023-04-21T09:23:11.775Z,2.90
2023-04-21T09:25:40.692Z,3.30
2023-04-21T09:28:09.915Z,2.70
2023-04-21T09:30:39.053Z,3.10
2023-04-21T09:33:20.031Z,2.80
2023-04-21T09:35:53.360Z,3.10
2023-04-21T09:38:23.670Z,2.80
2023-04-21T09:40:58.613Z,7.00
2023-04-21T09:43:28.080Z,3.80
2023-04-21T09:45:58.249Z,2.80
2023-04-21T09:48:31.122Z,3.30
2023-04-21T09:53:41.246Z,3.50
2023-04-21T09:56:21.923Z,3.10
2023-04-21T09:59:30.884Z,2.90
2023-04-21T10:02:01.710Z,4.00
2023-04-21T10:04:48.159Z,3.30
2023-04-21T10:07:23.976Z,3.30
2023-04-21T10:10:48.196Z,4.40
2023-04-21T10:13:49.058Z,3.50
2023-04-21T10:16:27.125Z,3.00
2023-04-21T10:31:19.171Z,2.70
2023-04-21T10:37:24.200Z,2.80
2023-04-21T10:47:45.352Z,3.50
2023-04-21T10:50:20.675Z,2.80
2023-04-21T10:52:57.970Z,2.70
2023-04-21T10:55:32.616Z,2.90
2023-04-21T10:58:07.810Z,2.90
2023-04-21T11:00:39.868Z,2.60
2023-04-21T11:04:02.368Z,2.90
2023-04-21T11:06:33.569Z,2.60
2023-04-21T11:09:04.687Z,2.70
2023-04-21T11:11:43.779Z,2.90
2023-04-21T11:14:19.797Z,2.90
2023-04-21T11:17:38.436Z,2.90
2023-04-21T11:20:10.831Z,2.70
2023-04-21T11:22:43.583Z,2.90
2023-04-21T11:25:20.785Z,2.80
2023-04-21T11:28:00.162Z,3.80
2023-04-21T11:30:37.336Z,3.10
2023-04-21T11:33:09.582Z,3.20
2023-04-21T11:35:43.575Z,3.00
2023-04-21T11:38:16.059Z,3.20
2023-04-21T11:41:46.863Z,3.10
2023-04-21T11:44:34.208Z,2.80
2023-04-21T11:47:17.397Z,2.80
2023-04-21T11:49:50.636Z,3.10
2023-04-21T11:52:25.968Z,3.40
2023-04-21T11:55:02.496Z,3.20
2023-04-21T11:57:36.688Z,3.20
2023-04-21T12:00:11.906Z,3.20
2023-04-21T12:02:44.388Z,5.30
2023-04-21T12:05:16.420Z,3.20
2023-04-21T12:08:16.622Z,2.90
2023-04-21T12:10:51.701Z,2.60
2023-04-21T12:13:26.275Z,3.10
2023-04-21T12:15:57.145Z,3.30
2023-04-21T12:18:33.015Z,2.90
2023-04-21T12:21:04.760Z,3.00
2023-04-21T12:23:35.524Z,2.90
2023-04-21T12:26:07.046Z,2.80
2023-04-21T12:28:38.523Z,3.10
2023-04-21T12:31:27.762Z,2.70
2023-04-21T12:34:19.112Z,3.00
2023-04-21T12:37:01.249Z,3.00
2023-04-21T12:51:24.540Z,2.50
2023-04-21T12:53:55.804Z,2.70
2023-04-21T12:56:35.480Z,2.60
2023-04-21T12:59:13.939Z,3.30
2023-04-21T13:05:45.827Z,3.00
2023-04-21T13:08:35.830Z,4.40
2023-04-21T13:12:11.236Z,3.10
2023-04-21T13:15:14.900Z,2.90
2023-04-21T13:17:52.858Z,2.90
2023-04-21T13:29:12.697Z,2.60
2023-04-21T13:37:09.125Z,2.80
2023-04-21T13:40:12.829Z,2.40
2023-04-21T13:53:42.542Z,3.90
2023-04-21T13:56:20.832Z,3.00
2023-04-21T13:59:10.083Z,2.80
2023-04-21T14:01:45.847Z,2.40
2023-04-21T14:16:41.883Z,2.90
2023-04-21T14:27:19.076Z,2.60
2023-04-21T14:48:16.347Z,2.60
2023-04-21T14:51:23.145Z,2.70
2023-04-21T14:54:05.265Z,3.00
2023-04-21T15:29:54.902Z,2.60
2023-04-21T16:02:24.657Z,2.80
2023-04-21T16:06:07.574Z,3.30
2023-04-21T16:10:18.965Z,3.00
2023-04-21T16:13:05.007Z,3.20
2023-04-21T16:15:35.749Z,2.80
2023-04-21T16:18:13.016Z,2.90
2023-04-21T16:21:11.279Z,2.90
2023-04-21T16:36:51.882Z,2.50
2023-04-21T16:39:27.921Z,2.90
2023-04-21T16:42:02.468Z,3.20
2023-04-21T16:44:48.678Z,3.80
2023-04-21T16:47:21.827Z,3.90
2023-04-21T16:49:58.949Z,4.30
2023-04-21T16:52:33.133Z,2.90
2023-04-21T16:55:04.108Z,3.10
2023-04-21T16:57:35.934Z,3.80
2023-04-21T17:00:10.560Z,3.10
2023-04-21T17:02:41.669Z,7.40
2023-04-21T17:05:13.202Z,3.70
2023-04-21T17:07:45.063Z,3.00
2023-04-21T17:10:15.867Z,3.70
2023-04-21T17:12:48.245Z,3.50
2023-04-21T17:15:19.394Z,2.90
2023-04-21T17:17:51.449Z,3.50
2023-04-21T17:20:25.844Z,3.40
2023-04-21T17:23:00.706Z,3.90
2023-04-21T17:25:32.758Z,3.70
2023-04-21T17:32:25.193Z,2.70
2023-04-21T17:35:06.271Z,3.30
2023-04-21T17:37:45.097Z,3.80
2023-04-21T17:40:53.042Z,2.90
2023-04-21T17:44:13.850Z,3.30
2023-04-21T17:46:45.672Z,2.90
2023-04-21T17:49:20.257Z,3.40
2023-04-21T17:51:53.372Z,4.10
2023-04-21T17:54:39.144Z,3.80
2023-04-21T17:57:11.725Z,3.70
2023-04-21T18:12:13.682Z,5.50
2023-04-21T18:25:46.255Z,4.50
2023-04-21T18:28:48.145Z,4.70
2023-04-21T18:31:34.926Z,3.90
2023-04-21T18:34:14.612Z,4.80
2023-04-21T18:37:05.113Z,4.80
2023-04-21T18:39:36.347Z,5.70
2023-04-21T18:42:12.771Z,5.40
2023-04-21T18:44:45.146Z,5.10
2023-04-21T18:47:29.861Z,5.00
2023-04-21T18:50:01.962Z,4.70
2023-04-21T18:52:33.130Z,5.30
2023-04-21T18:55:04.282Z,5.00
2023-04-21T18:57:37.655Z,5.00
2023-04-21T19:00:15.684Z,4.90
2023-04-21T19:02:53.510Z,4.90
2023-04-21T19:05:26.888Z,5.10
2023-04-21T19:07:59.439Z,5.50
2023-04-21T19:10:38.241Z,6.00
2023-04-21T19:13:11.897Z,5.70
2023-04-21T19:15:43.092Z,5.10
2023-04-21T19:18:14.439Z,5.40
2023-04-21T19:20:48.650Z,4.90
2023-04-21T19:24:01.144Z,5.90
2023-04-21T19:26:32.152Z,5.50
2023-04-21T19:29:05.322Z,5.70
2023-04-21T19:31:40.029Z,5.40
2023-04-21T19:34:25.680Z,5.30
2023-04-21T19:36:58.063Z,5.80
2023-04-21T19:43:46.518Z,5.10
2023-04-21T19:46:18.358Z,7.10
2023-04-21T19:46:57.974Z,5.80
2023-04-21T19:48:50.781Z,6.60
2023-04-21T19:51:24.249Z,6.40
2023-04-21T19:54:12.310Z,5.80
2023-04-21T19:56:44.871Z,6.00
2023-04-21T19:59:16.379Z,6.00
2023-04-21T20:01:48.033Z,5.60
2023-04-21T20:04:19.323Z,10.00
2023-04-21T20:06:50.917Z,7.90
2023-04-21T20:09:21.808Z,6.40
2023-04-21T20:11:52.859Z,6.90
2023-04-21T20:14:23.812Z,6.60
2023-04-21T20:16:54.980Z,7.60
2023-04-21T20:19:40.894Z,7.20
2023-04-21T20:22:24.035Z,7.10
2023-04-21T20:24:58.120Z,7.10
2023-04-21T20:27:30.037Z,7.50
2023-04-21T20:30:02.699Z,8.30
2023-04-21T20:32:38.323Z,8.50
2023-04-21T20:35:12.006Z,8.70
2023-04-21T20:37:44.548Z,7.90
2023-04-21T20:40:21.783Z,7.90
2023-04-21T20:42:52.773Z,7.60
2023-04-21T20:45:24.001Z,7.90
2023-04-21T20:47:55.598Z,7.50
2023-04-21T20:50:33.287Z,7.60
2023-04-21T20:53:05.618Z,10.70
2023-04-21T20:55:39.709Z,11.00
2023-04-21T20:58:10.630Z,9.40
2023-04-21T21:00:55.400Z,9.00
2023-04-21T21:03:26.729Z,8.30
2023-04-21T21:05:58.068Z,8.40
2023-04-21T21:08:30.051Z,9.00
2023-04-21T21:11:01.231Z,8.70
2023-04-21T21:13:34.736Z,9.80
2023-04-21T21:16:06.092Z,9.40
2023-04-21T21:18:37.023Z,9.90
2023-04-21T21:21:08.139Z,9.20
2023-04-21T21:23:39.205Z,10.50
2023-04-21T21:26:10.098Z,9.80
2023-04-21T21:28:51.343Z,9.10
2023-04-21T21:31:26.908Z,10.70
2023-04-21T21:33:58.455Z,9.70
2023-04-21T21:36:30.429Z,9.70
2023-04-21T21:39:11.167Z,10.30
2023-04-21T21:41:42.312Z,10.20
2023-04-21T21:44:13.241Z,9.60
2023-04-21T21:46:44.433Z,9.10
2023-04-21T21:49:17.822Z,9.30
2023-04-21T21:51:48.678Z,9.60
2023-04-21T21:54:19.788Z,9.60
2023-04-21T21:56:50.855Z,9.60
2023-04-21T21:59:23.485Z,9.80
2023-04-21T22:01:56.865Z,10.20
2023-04-21T22:04:27.842Z,10.60
2023-04-21T22:06:58.919Z,10.60
2023-04-21T22:09:29.698Z,10.10
2023-04-21T22:12:01.087Z,10.70
2023-04-21T22:14:36.373Z,10.40
2023-04-21T22:17:07.589Z,9.40
2023-04-21T22:19:41.861Z,9.70
2023-04-21T22:22:12.890Z,9.20
2023-04-21T22:24:45.952Z,9.60
2023-04-21T22:27:19.014Z,10.70
2023-04-21T22:30:13.637Z,10.00
2023-04-21T22:32:44.794Z,10.60
2023-04-21T22:35:15.793Z,9.80
2023-04-21T22:37:46.637Z,9.60
2023-04-21T22:40:20.351Z,9.70
2023-04-21T22:42:51.239Z,10.50
2023-04-21T22:45:22.212Z,10.30
2023-04-21T22:47:53.228Z,9.30
2023-04-21T22:50:24.562Z,10.10
2023-04-21T22:52:55.633Z,9.60
2023-04-21T22:55:26.665Z,9.40
2023-04-21T22:57:57.585Z,9.10
2023-04-21T23:00:28.575Z,9.50
2023-04-21T23:02:59.773Z,9.00
2023-04-21T23:05:33.128Z,9.20
2023-04-21T23:08:04.310Z,9.00
2023-04-21T23:10:35.357Z,8.80
2023-04-21T23:13:06.239Z,9.20
2023-04-21T23:15:38.263Z,9.80
2023-04-21T23:18:09.593Z,8.90
2023-04-21T23:20:40.649Z,9.50
2023-04-21T23:23:11.650Z,9.40
2023-04-21T23:25:42.545Z,10.00
2023-04-21T23:28:13.428Z,9.60
2023-04-21T23:30:44.565Z,9.60
2023-04-21T23:33:17.555Z,23.40
2023-04-21T23:35:48.509Z,21.10
2023-04-21T23:38:19.464Z,11.50
2023-04-21T23:40:50.268Z,10.30
2023-04-21T23:43:21.096Z,10.20
2023-04-21T23:45:52.112Z,9.00
2023-04-21T23:48:24.329Z,10.10
2023-04-21T23:50:55.558Z,10.00
2023-04-21T23:53:26.477Z,9.30
2023-04-21T23:55:57.519Z,8.50
2023-04-21T23:58:28.305Z,9.30
